createdAt,value
2019-05-06T00:02:04.499Z,18.30
2019-05-06T00:04:35.737Z,25.12
2019-05-06T00:07:07.628Z,20.45
2019-05-06T00:09:39.267Z,23.12
2019-05-06T00:12:11.032Z,22.82
2019-05-06T00:14:43.670Z,19.30
2019-05-06T00:17:15.714Z,24.40
2019-05-06T00:19:47.551Z,22.75
2019-05-06T00:22:19.187Z,22.58
2019-05-06T00:24:54.592Z,25.02
2019-05-06T00:27:30.168Z,24.75
2019-05-06T00:30:04.329Z,22.80
2019-05-06T00:32:34.946Z,20.35
2019-05-06T00:35:07.532Z,23.90
2019-05-06T00:37:39.260Z,25.97
2019-05-06T00:40:14.034Z,23.98
2019-05-06T00:42:46.414Z,24.72
2019-05-06T00:45:17.858Z,26.00
2019-05-06T00:47:49.362Z,20.20
2019-05-06T00:50:20.852Z,20.35
2019-05-06T00:52:53.990Z,18.62
2019-05-06T00:55:25.359Z,18.15
2019-05-06T00:57:56.816Z,14.53
2019-05-06T01:00:29.989Z,20.27
2019-05-06T01:03:01.396Z,20.45
2019-05-06T01:05:33.725Z,18.87
2019-05-06T01:08:05.728Z,19.02
2019-05-06T01:10:37.706Z,24.85
2019-05-06T01:13:10.501Z,43.35
2019-05-06T01:15:56.160Z,20.45
2019-05-06T01:18:28.918Z,20.48
2019-05-06T01:21:14.330Z,19.15
2019-05-06T01:23:45.584Z,18.50
2019-05-06T01:26:17.446Z,18.85
2019-05-06T01:28:48.792Z,18.52
2019-05-06T01:31:20.252Z,23.35
2019-05-06T01:33:53.437Z,15.15
2019-05-06T01:36:25.070Z,18.85
2019-05-06T01:39:04.422Z,22.77
2019-05-06T01:41:44.672Z,23.73
2019-05-06T01:44:16.531Z,19.80
2019-05-06T01:46:47.979Z,20.70
2019-05-06T01:49:19.948Z,23.77
2019-05-06T01:51:51.600Z,22.98
2019-05-06T01:54:24.857Z,17.67
2019-05-06T01:56:56.832Z,18.90
2019-05-06T01:59:28.412Z,28.07
2019-05-06T02:02:01.151Z,27.87
2019-05-06T02:04:33.733Z,25.15
2019-05-06T02:07:05.752Z,20.20
2019-05-06T02:09:39.669Z,20.62
2019-05-06T02:12:13.662Z,17.50
2019-05-06T02:14:44.571Z,17.23
2019-05-06T02:17:16.482Z,20.97
2019-05-06T02:19:48.182Z,21.73
2019-05-06T02:22:24.297Z,20.72
2019-05-06T02:24:57.428Z,24.20
2019-05-06T02:27:29.396Z,18.25
2019-05-06T02:30:07.945Z,22.82
2019-05-06T02:32:47.713Z,18.42
2019-05-06T02:35:26.019Z,22.37
2019-05-06T02:37:56.199Z,22.80
2019-05-06T02:40:29.301Z,26.68
2019-05-06T02:43:03.318Z,31.27
2019-05-06T02:45:33.785Z,26.33
2019-05-06T02:48:16.157Z,19.67
2019-05-06T02:50:49.122Z,18.25
2019-05-06T02:53:23.571Z,22.93
2019-05-06T02:55:55.608Z,17.50
2019-05-06T02:58:27.275Z,15.58
2019-05-06T03:00:58.855Z,17.55
2019-05-06T03:03:33.354Z,18.40
2019-05-06T03:06:03.855Z,21.85
2019-05-06T03:08:36.354Z,16.15
2019-05-06T03:11:08.375Z,16.60
2019-05-06T03:13:43.447Z,15.70
2019-05-06T03:16:14.240Z,22.67
2019-05-06T03:18:45.929Z,22.07
2019-05-06T03:21:36.985Z,21.42
2019-05-06T03:24:23.459Z,16.42
2019-05-06T03:26:56.990Z,23.30
2019-05-06T03:29:27.494Z,18.10
2019-05-06T03:31:59.317Z,19.35
2019-05-06T03:34:52.671Z,15.85
2019-05-06T03:37:07.675Z,24.10
2019-05-06T03:39:37.085Z,23.98
2019-05-06T03:42:08.720Z,18.23
2019-05-06T03:44:43.595Z,23.07
2019-05-06T03:47:15.888Z,15.03
2019-05-06T03:49:50.136Z,18.70
2019-05-06T03:52:23.330Z,14.85
2019-05-06T03:54:54.425Z,17.17
2019-05-06T03:57:26.154Z,18.67
2019-05-06T03:59:57.737Z,20.17
2019-05-06T04:02:29.588Z,18.57
2019-05-06T04:05:03.572Z,26.60
2019-05-06T04:07:34.569Z,21.50
2019-05-06T04:10:07.404Z,32.67
2019-05-06T04:12:43.326Z,25.17
2019-05-06T04:15:14.174Z,16.97
2019-05-06T04:17:47.356Z,23.65
2019-05-06T04:20:26.644Z,70.40
2019-05-06T04:22:59.638Z,26.45
2019-05-06T04:25:48.791Z,21.40
2019-05-06T04:28:23.815Z,20.27
2019-05-06T04:30:55.014Z,20.88
2019-05-06T04:33:27.033Z,25.10
2019-05-06T04:35:58.829Z,17.98
2019-05-06T04:38:30.180Z,21.97
2019-05-06T04:41:02.887Z,18.20
2019-05-06T04:43:34.889Z,16.12
2019-05-06T04:46:06.661Z,19.65
2019-05-06T04:48:38.352Z,15.30
2019-05-06T04:51:09.660Z,19.32
2019-05-06T04:53:44.301Z,16.48
2019-05-06T04:56:16.274Z,22.27
2019-05-06T04:58:48.100Z,25.50
2019-05-06T05:01:19.593Z,16.00
2019-05-06T05:03:53.543Z,20.90
2019-05-06T05:06:24.490Z,18.15
2019-05-06T05:08:55.882Z,20.43
2019-05-06T05:11:33.245Z,20.90
2019-05-06T05:14:09.254Z,21.90
2019-05-06T05:16:42.288Z,21.55
2019-05-06T05:19:15.283Z,20.68
2019-05-06T05:21:46.968Z,18.35
2019-05-06T05:24:18.761Z,27.82
2019-05-06T05:26:52.290Z,14.55
2019-05-06T05:29:23.924Z,19.30
2019-05-06T05:31:55.884Z,18.12
2019-05-06T05:34:38.079Z,16.87
2019-05-06T05:37:02.799Z,20.75
2019-05-06T05:39:33.562Z,23.60
2019-05-06T05:42:06.677Z,19.57
2019-05-06T05:44:39.485Z,24.72
2019-05-06T05:47:12.370Z,21.00
2019-05-06T05:50:02.250Z,19.87
2019-05-06T05:52:33.228Z,14.53
2019-05-06T05:55:05.184Z,19.35
2019-05-06T05:57:37.017Z,16.25
2019-05-06T06:00:08.684Z,21.80
2019-05-06T06:02:43.441Z,16.82
2019-05-06T06:05:13.247Z,23.83
2019-05-06T06:07:45.094Z,17.98
2019-05-06T06:10:29.787Z,16.57
2019-05-06T06:13:02.143Z,20.32
2019-05-06T06:15:52.132Z,19.05
2019-05-06T06:18:33.220Z,19.50
2019-05-06T06:21:17.666Z,16.85
2019-05-06T06:23:41.971Z,16.30
2019-05-06T06:26:13.739Z,18.15
2019-05-06T06:28:45.232Z,18.77
2019-05-06T06:31:18.620Z,19.75
2019-05-06T06:33:52.980Z,19.45
2019-05-06T06:36:37.636Z,20.45
2019-05-06T06:39:12.429Z,14.25
2019-05-06T06:41:43.559Z,21.55
2019-05-06T06:44:16.409Z,19.70
2019-05-06T06:46:48.450Z,23.32
2019-05-06T06:49:21.716Z,24.18
2019-05-06T06:51:53.249Z,17.23
2019-05-06T06:54:24.957Z,22.93
2019-05-06T06:57:06.167Z,17.23
2019-05-06T06:59:32.168Z,27.45
2019-05-06T07:02:14.012Z,18.98
2019-05-06T07:04:47.048Z,20.77
2019-05-06T07:07:20.104Z,22.22
2019-05-06T07:09:53.276Z,17.82
2019-05-06T07:12:24.536Z,53.58
2019-05-06T07:15:02.459Z,13.35
2019-05-06T07:17:34.532Z,22.25
2019-05-06T07:20:17.130Z,16.48
2019-05-06T07:22:48.979Z,14.53
2019-05-06T07:25:22.641Z,12.78
2019-05-06T07:27:53.673Z,22.42
2019-05-06T07:30:26.416Z,15.78
2019-05-06T07:33:00.422Z,14.75
2019-05-06T07:35:39.451Z,17.32
2019-05-06T07:38:04.321Z,17.98
2019-05-06T07:40:36.257Z,19.35
2019-05-06T07:43:25.708Z,17.07
2019-05-06T07:45:58.624Z,16.52
2019-05-06T07:48:31.961Z,24.07
2019-05-06T07:51:03.330Z,16.27
2019-05-06T07:53:35.024Z,23.27
2019-05-06T07:56:06.572Z,21.77
2019-05-06T07:58:38.181Z,24.52
2019-05-06T08:01:09.945Z,19.90
2019-05-06T08:03:42.777Z,16.20
2019-05-06T08:06:14.768Z,15.70
2019-05-06T08:08:46.689Z,16.87
2019-05-06T08:11:18.391Z,18.60
2019-05-06T08:13:50.037Z,23.65
2019-05-06T08:16:22.650Z,21.10
2019-05-06T08:18:56.941Z,15.75
2019-05-06T08:21:38.672Z,27.02
2019-05-06T08:24:12.042Z,19.50
2019-05-06T08:26:43.713Z,20.45
2019-05-06T08:29:16.052Z,24.27
2019-05-06T08:31:47.826Z,17.65
2019-05-06T08:34:19.715Z,18.85
2019-05-06T08:36:53.378Z,18.95
2019-05-06T08:39:25.120Z,19.80
2019-05-06T08:41:56.816Z,18.73
2019-05-06T08:44:28.628Z,26.33
2019-05-06T08:47:02.436Z,18.52
2019-05-06T08:49:34.600Z,17.32
2019-05-06T08:52:13.480Z,25.57
2019-05-06T08:54:49.554Z,25.32
2019-05-06T08:57:22.750Z,22.42
2019-05-06T08:59:54.361Z,25.92
2019-05-06T09:02:26.249Z,19.23
2019-05-06T09:04:58.019Z,17.20
2019-05-06T09:07:31.883Z,23.00
2019-05-06T09:10:02.835Z,20.10
2019-05-06T09:12:34.313Z,25.72
2019-05-06T09:15:06.097Z,36.08
2019-05-06T09:17:37.641Z,26.90
2019-05-06T09:20:09.831Z,32.42
2019-05-06T09:22:42.943Z,25.32
2019-05-06T09:25:14.498Z,19.85
2019-05-06T09:27:50.052Z,28.62
2019-05-06T09:30:38.649Z,27.48
2019-05-06T09:33:10.442Z,26.42
2019-05-06T09:35:42.402Z,24.15
2019-05-06T09:38:13.813Z,25.62
2019-05-06T09:40:45.283Z,24.20
2019-05-06T09:43:16.954Z,38.75
2019-05-06T09:45:48.677Z,31.37
2019-05-06T09:48:22.437Z,29.12
2019-05-06T09:50:54.355Z,21.93
2019-05-06T09:53:30.404Z,26.35
2019-05-06T09:56:06.789Z,19.62
2019-05-06T09:58:42.943Z,26.75
2019-05-06T10:01:14.198Z,31.42
2019-05-06T10:03:45.973Z,24.52
2019-05-06T10:06:17.710Z,21.15
2019-05-06T10:08:49.619Z,24.75
2019-05-06T10:11:22.330Z,32.70
2019-05-06T10:13:54.198Z,28.90
2019-05-06T10:16:25.770Z,21.40
2019-05-06T10:18:57.532Z,31.40
2019-05-06T10:21:32.191Z,24.80
2019-05-06T10:24:02.537Z,31.62
2019-05-06T10:26:35.550Z,31.02
2019-05-06T10:29:08.995Z,31.45
2019-05-06T10:31:48.532Z,27.30
2019-05-06T10:34:22.097Z,25.48
2019-05-06T10:37:11.684Z,19.65
2019-05-06T10:42:14.324Z,22.02
2019-05-06T10:44:54.054Z,21.82
2019-05-06T10:47:25.848Z,18.40
2019-05-06T10:49:57.549Z,18.45
2019-05-06T10:52:51.713Z,14.40
2019-05-06T10:55:23.317Z,20.25
2019-05-06T10:57:55.330Z,17.32
2019-05-06T11:00:27.064Z,15.83
2019-05-06T11:03:14.961Z,21.05
2019-05-06T11:08:16.353Z,20.02
2019-05-06T11:10:48.182Z,16.35
2019-05-06T11:13:20.097Z,24.35
2019-05-06T11:15:55.076Z,21.70
2019-05-06T11:18:24.910Z,23.62
2019-05-06T11:20:56.661Z,21.57
2019-05-06T11:23:30.930Z,28.75
2019-05-06T11:26:03.079Z,28.67
2019-05-06T11:28:54.861Z,25.90
2019-05-06T11:31:33.944Z,26.73
2019-05-06T11:34:12.488Z,25.12
2019-05-06T11:36:47.665Z,31.87
2019-05-06T11:39:19.521Z,34.87
2019-05-06T11:42:14.416Z,27.77
2019-05-06T11:44:24.484Z,30.95
2019-05-06T11:46:56.142Z,37.50
2019-05-06T11:49:27.616Z,32.63
2019-05-06T11:51:59.391Z,38.45
2019-05-06T11:54:33.578Z,34.43
2019-05-06T11:57:04.853Z,43.60
2019-05-06T11:59:36.362Z,33.95
2019-05-06T12:02:09.178Z,31.52
2019-05-06T12:04:41.950Z,39.40
2019-05-06T12:07:15.873Z,35.55
2019-05-06T12:09:46.721Z,40.03
2019-05-06T12:12:18.486Z,37.00
2019-05-06T12:14:52.474Z,49.03
2019-05-06T12:17:23.420Z,36.90
2019-05-06T12:19:54.999Z,41.88
2019-05-06T12:22:27.949Z,30.55
2019-05-06T12:24:59.980Z,29.67
2019-05-06T12:27:47.402Z,29.35
2019-05-06T12:30:22.983Z,26.40
2019-05-06T12:33:03.215Z,24.23
2019-05-06T12:35:36.198Z,24.77
2019-05-06T12:38:26.537Z,27.95
2019-05-06T12:40:47.945Z,30.20
2019-05-06T12:43:27.699Z,22.93
2019-05-06T12:46:06.582Z,18.52
2019-05-06T12:48:44.030Z,24.98
2019-05-06T12:51:15.867Z,19.45
2019-05-06T12:53:47.571Z,27.42
2019-05-06T12:56:19.210Z,16.20
2019-05-06T12:58:52.599Z,26.75
2019-05-06T13:01:24.034Z,17.57
2019-05-06T13:03:55.747Z,21.40
2019-05-06T13:06:27.285Z,18.57
2019-05-06T13:09:04.162Z,12.93
2019-05-06T13:11:32.092Z,15.13
2019-05-06T13:14:04.327Z,17.02
2019-05-06T13:16:35.746Z,19.10
2019-05-06T13:19:07.694Z,15.80
2019-05-06T13:21:39.561Z,13.15
2019-05-06T13:24:12.137Z,13.45
2019-05-06T13:26:44.216Z,19.42
2019-05-06T13:29:17.515Z,18.17
2019-05-06T13:31:49.156Z,12.37
2019-05-06T13:34:23.481Z,12.28
2019-05-06T13:36:54.532Z,13.88
2019-05-06T13:39:26.330Z,15.85
2019-05-06T13:41:58.072Z,20.43
2019-05-06T13:44:31.888Z,14.93
2019-05-06T13:47:03.102Z,10.80
2019-05-06T13:49:36.263Z,15.58
2019-05-06T13:52:08.977Z,13.78
2019-05-06T13:54:42.175Z,16.32
2019-05-06T13:57:14.150Z,13.80
2019-05-06T13:59:45.876Z,14.73
2019-05-06T14:02:21.669Z,18.07
2019-05-06T14:04:53.642Z,17.37
2019-05-06T14:07:25.406Z,11.18
2019-05-06T14:09:57.301Z,19.98
2019-05-06T14:12:28.821Z,11.50
2019-05-06T14:15:03.995Z,13.10
2019-05-06T14:17:33.845Z,11.05
2019-05-06T14:20:05.477Z,20.45
2019-05-06T14:22:37.194Z,7.12
2019-05-06T14:25:27.581Z,15.90
2019-05-06T14:28:03.222Z,9.40
2019-05-06T14:30:36.526Z,7.37
2019-05-06T14:33:08.331Z,16.52
2019-05-06T14:35:40.240Z,11.33
2019-05-06T14:38:13.622Z,12.85
2019-05-06T14:41:04.401Z,13.13
2019-05-06T14:43:35.369Z,9.98
2019-05-06T14:46:07.333Z,8.90
2019-05-06T14:48:39.121Z,13.48
2019-05-06T14:51:12.892Z,9.25
2019-05-06T14:53:44.027Z,10.70
2019-05-06T14:56:17.167Z,11.78
2019-05-06T14:59:07.921Z,13.70
2019-05-06T15:01:40.194Z,15.48
2019-05-06T15:04:12.539Z,13.22
2019-05-06T15:06:44.574Z,12.15
2019-05-06T15:09:15.953Z,8.93
2019-05-06T15:11:47.809Z,11.97
2019-05-06T15:14:19.636Z,11.85
2019-05-06T15:16:52.769Z,11.55
2019-05-06T15:19:24.630Z,15.55
2019-05-06T15:21:56.572Z,12.75
2019-05-06T15:24:28.213Z,11.45
2019-05-06T15:26:59.828Z,8.10
2019-05-06T15:29:31.785Z,14.50
2019-05-06T15:32:12.852Z,11.60
2019-05-06T15:34:56.900Z,12.95
2019-05-06T15:37:29.934Z,9.73
2019-05-06T15:40:03.053Z,9.70
2019-05-06T15:42:34.489Z,17.92
2019-05-06T15:45:07.520Z,12.25
2019-05-06T15:47:39.399Z,13.72
2019-05-06T15:50:12.737Z,22.93
2019-05-06T15:52:43.890Z,11.15
2019-05-06T15:55:15.553Z,14.53
2019-05-06T15:57:47.164Z,17.00
2019-05-06T16:00:22.311Z,13.05
2019-05-06T16:02:53.442Z,11.53
2019-05-06T16:05:26.435Z,15.80
2019-05-06T16:07:58.111Z,14.25
2019-05-06T16:10:29.606Z,18.40
2019-05-06T16:13:02.369Z,21.60
2019-05-06T16:15:34.328Z,14.95
2019-05-06T16:18:06.026Z,19.42
2019-05-06T16:20:37.812Z,15.88
2019-05-06T16:23:13.451Z,16.87
2019-05-06T16:25:45.028Z,13.28
2019-05-06T16:28:16.794Z,24.32
2019-05-06T16:30:49.492Z,15.78
2019-05-06T16:33:22.057Z,16.23
2019-05-06T16:35:54.297Z,14.47
2019-05-06T16:38:25.927Z,17.30
2019-05-06T16:41:09.389Z,18.62
2019-05-06T16:43:34.062Z,9.20
2019-05-06T16:46:03.690Z,10.05
2019-05-06T16:48:35.544Z,12.63
2019-05-06T16:51:07.240Z,15.48
2019-05-06T16:53:38.982Z,16.67
2019-05-06T16:56:23.939Z,14.30
2019-05-06T16:58:59.716Z,16.50
2019-05-06T17:01:34.068Z,14.20
2019-05-06T17:04:08.090Z,11.12
2019-05-06T17:06:43.043Z,7.90
2019-05-06T17:09:20.760Z,13.80
2019-05-06T17:11:47.631Z,10.15
2019-05-06T17:14:19.621Z,10.08
2019-05-06T17:16:52.700Z,8.90
2019-05-06T17:19:24.388Z,14.38
2019-05-06T17:21:56.221Z,10.98
2019-05-06T17:24:28.096Z,11.03
2019-05-06T17:26:59.314Z,12.10
2019-05-06T17:29:44.857Z,11.65
2019-05-06T17:32:28.744Z,13.58
2019-05-06T17:35:04.878Z,7.17
2019-05-06T17:37:56.268Z,8.43
2019-05-06T17:40:28.355Z,8.13
2019-05-06T17:43:02.401Z,9.45
2019-05-06T17:45:59.397Z,11.30
2019-05-06T17:48:27.940Z,9.35
2019-05-06T17:51:13.936Z,9.95
2019-05-06T17:53:52.109Z,10.70
2019-05-06T17:56:23.130Z,10.25
2019-05-06T17:58:54.680Z,12.58
2019-05-06T18:01:27.982Z,9.88
2019-05-06T18:04:02.089Z,10.08
2019-05-06T18:06:33.177Z,10.38
2019-05-06T18:09:05.145Z,8.43
2019-05-06T18:11:36.896Z,11.65
2019-05-06T18:14:08.627Z,8.80
2019-05-06T18:16:42.561Z,10.28
2019-05-06T18:19:13.164Z,12.25
2019-05-06T18:21:44.574Z,8.00
2019-05-06T18:24:16.309Z,10.50
2019-05-06T18:26:48.074Z,9.10
2019-05-06T18:29:21.624Z,8.25
2019-05-06T18:31:52.816Z,11.75
2019-05-06T18:34:24.686Z,11.40
2019-05-06T18:36:56.137Z,11.95
2019-05-06T18:39:27.646Z,12.03
2019-05-06T18:42:14.960Z,6.72
2019-05-06T18:44:33.220Z,10.35
2019-05-06T18:47:04.892Z,8.88
2019-05-06T18:49:36.542Z,8.10
2019-05-06T18:52:08.317Z,11.95
2019-05-06T18:54:42.727Z,11.20
2019-05-06T18:57:13.207Z,8.85
2019-05-06T18:59:45.126Z,9.23
2019-05-06T19:02:16.615Z,9.80
2019-05-06T19:04:52.136Z,12.60
2019-05-06T19:07:23.070Z,9.68
2019-05-06T19:09:56.207Z,13.00
2019-05-06T19:12:32.614Z,12.73
2019-05-06T19:15:03.126Z,10.40
2019-05-06T19:17:33.814Z,11.33
2019-05-06T19:20:05.892Z,12.03
2019-05-06T19:22:37.577Z,13.80
2019-05-06T19:25:12.396Z,16.40
2019-05-06T19:27:42.709Z,10.28
2019-05-06T19:30:14.865Z,10.18
2019-05-06T19:32:46.652Z,11.30
2019-05-06T19:35:18.906Z,13.22
2019-05-06T19:37:50.771Z,11.00
2019-05-06T19:40:22.927Z,16.25
2019-05-06T19:42:54.806Z,10.28
2019-05-06T19:45:29.142Z,16.70
2019-05-06T19:47:59.562Z,14.15
2019-05-06T19:50:32.821Z,11.97
2019-05-06T19:53:04.210Z,11.35
2019-05-06T19:55:35.870Z,12.63
2019-05-06T19:58:07.827Z,13.38
2019-05-06T20:00:41.917Z,11.03
2019-05-06T20:03:12.807Z,9.90
2019-05-06T20:05:45.987Z,9.83
2019-05-06T20:08:19.128Z,12.98
2019-05-06T20:11:08.854Z,15.30
2019-05-06T20:13:40.624Z,12.18
2019-05-06T20:16:12.506Z,13.35
2019-05-06T20:18:44.394Z,7.97
2019-05-06T20:21:16.117Z,12.63
2019-05-06T20:23:48.056Z,13.80
2019-05-06T20:26:21.441Z,16.07
2019-05-06T20:28:53.330Z,14.13
2019-05-06T20:31:24.806Z,16.87
2019-05-06T20:33:56.253Z,14.00
2019-05-06T20:36:28.534Z,10.55
2019-05-06T20:39:02.344Z,11.97
2019-05-06T20:41:33.015Z,17.92
2019-05-06T20:44:04.919Z,17.65
2019-05-06T20:46:36.564Z,15.93
2019-05-06T20:49:08.224Z,13.65
2019-05-06T20:51:42.282Z,10.68
2019-05-06T20:54:13.113Z,14.65
2019-05-06T20:56:44.990Z,17.10
2019-05-06T20:59:16.645Z,13.68
2019-05-06T21:01:48.412Z,15.48
2019-05-06T21:04:20.034Z,11.43
2019-05-06T21:06:51.898Z,14.03
2019-05-06T21:09:23.540Z,10.85
2019-05-06T21:11:55.354Z,16.85
2019-05-06T21:14:26.900Z,15.58
2019-05-06T21:16:58.510Z,15.88
2019-05-06T21:19:30.357Z,13.78
2019-05-06T21:22:02.290Z,16.65
2019-05-06T21:24:36.071Z,17.15
2019-05-06T21:27:07.212Z,22.77
2019-05-06T21:29:38.892Z,16.30
2019-05-06T21:32:10.805Z,17.95
2019-05-06T21:34:43.218Z,13.93
2019-05-06T21:37:15.238Z,14.85
2019-05-06T21:39:46.870Z,15.18
2019-05-06T21:42:18.741Z,13.88
2019-05-06T21:44:52.147Z,17.07
2019-05-06T21:47:23.766Z,18.85
2019-05-06T21:49:55.408Z,21.27
2019-05-06T21:52:36.216Z,15.78
2019-05-06T21:55:02.392Z,13.80
2019-05-06T21:57:33.587Z,17.85
2019-05-06T22:00:06.723Z,16.77
2019-05-06T22:02:38.449Z,19.30
2019-05-06T22:05:10.441Z,16.37
2019-05-06T22:07:43.321Z,16.07
2019-05-06T22:10:15.441Z,16.40
2019-05-06T22:12:47.330Z,13.93
2019-05-06T22:15:18.866Z,19.40
2019-05-06T22:17:54.278Z,12.95
2019-05-06T22:20:23.897Z,15.13
2019-05-06T22:22:55.652Z,11.97
2019-05-06T22:25:27.436Z,16.62
2019-05-06T22:27:59.145Z,12.65
2019-05-06T22:30:32.804Z,11.18
2019-05-06T22:33:03.852Z,14.98
2019-05-06T22:35:35.537Z,15.98
2019-05-06T22:38:07.544Z,14.38
2019-05-06T22:40:39.195Z,16.02
2019-05-06T22:43:12.320Z,15.60
2019-05-06T22:45:43.898Z,16.60
2019-05-06T22:48:15.993Z,21.07
2019-05-06T22:50:47.716Z,18.32
2019-05-06T22:53:19.393Z,20.57
2019-05-06T22:55:51.128Z,21.55
2019-05-06T22:58:22.880Z,15.63
2019-05-06T23:00:55.953Z,24.32
2019-05-06T23:03:34.472Z,29.65
2019-05-06T23:06:05.308Z,24.15
2019-05-06T23:08:37.018Z,19.98
2019-05-06T23:11:08.755Z,17.30
2019-05-06T23:13:41.891Z,16.95
2019-05-06T23:16:13.532Z,16.27
2019-05-06T23:18:45.266Z,12.28
2019-05-06T23:21:17.004Z,15.28
2019-05-06T23:23:48.717Z,14.35
2019-05-06T23:26:22.776Z,12.75
2019-05-06T23:28:54.595Z,14.68
2019-05-06T23:31:26.384Z,16.55
2019-05-06T23:33:58.209Z,15.63
2019-05-06T23:36:30.983Z,11.73
2019-05-06T23:39:42.852Z,13.83
2019-05-06T23:42:52.595Z,12.90
2019-05-06T23:46:02.263Z,17.65
2019-05-06T23:49:09.075Z,21.17
2019-05-06T23:52:16.601Z,18.30
2019-05-06T23:55:24.175Z,16.02
2019-05-06T23:57:54.216Z,15.68
